Time;durP1;ratioP1;P1;durP2;ratioP2;P2;SDS_P1;SDS_P2;PMS_P1;PMS_P2;Temp;Humidity;BMP_temperature;BMP_pressure;BME280_temperature;BME280_humidity;BME280_pressure;Samples;Min_cycle;Max_cycle;Signal;HPM_P1;HPM_P2
2022/06/17 00:00:58;;;;;;;4.38;3.97;;;16.40;96.00;;;;;;5024688;28;20042;-77
2022/06/17 00:03:27;;;;;;;5.00;4.10;;;16.20;96.60;;;;;;5034358;28;20017;-77
2022/06/17 00:05:56;;;;;;;5.53;4.13;;;16.20;99.00;;;;;;5033694;28;20025;-77
2022/06/17 00:08:35;;;;;;;5.15;4.65;;;15.50;99.90;;;;;;5026200;28;20026;-76
2022/06/17 00:11:01;;;;;;;5.10;4.60;;;15.00;99.90;;;;;;5033646;28;20022;-77
2022/06/17 00:13:27;;;;;;;4.45;4.05;;;14.90;99.90;;;;;;5033203;28;20115;-76
2022/06/17 00:15:53;;;;;;;4.88;4.45;;;14.80;99.90;;;;;;5034015;28;20036;-77
2022/06/17 00:18:20;;;;;;;6.13;4.72;;;14.80;99.90;;;;;;5033179;28;20025;-76
2022/06/17 00:20:50;;;;;;;7.20;4.53;;;15.10;99.90;;;;;;5028258;28;20113;-76
2022/06/17 00:23:22;;;;;;;4.93;4.32;;;15.20;99.90;;;;;;5030967;28;20075;-77
2022/06/17 00:25:49;;;;;;;6.78;4.95;;;15.40;99.90;;;;;;5033776;28;20025;-77
2022/06/17 00:28:21;;;;;;;5.35;4.85;;;15.40;99.90;;;;;;5033983;28;20034;-77
2022/06/17 00:30:48;;;;;;;5.03;4.40;;;15.30;99.90;;;;;;5032302;28;20049;-77
2022/06/17 00:33:15;;;;;;;5.05;4.40;;;15.40;99.90;;;;;;5033353;28;20488;-77
2022/06/17 00:35:53;;;;;;;5.85;4.57;;;15.50;99.90;;;;;;5033223;28;20029;-77
2022/06/17 00:38:28;;;;;;;4.97;4.13;;;15.30;99.90;;;;;;5031750;28;20029;-77
2022/06/17 00:40:56;;;;;;;4.30;3.90;;;15.30;99.90;;;;;;5021399;28;20029;-77
2022/06/17 00:43:35;;;;;;;6.22;3.97;;;15.30;99.90;;;;;;5033234;28;20071;-77
2022/06/17 00:46:33;;;;;;;7.00;4.13;;;15.20;99.90;;;;;;5033514;28;20043;-77
2022/06/17 00:49:04;;;;;;;4.32;3.90;;;14.70;99.90;;;;;;5027305;28;20047;-76
2022/06/17 00:51:38;;;;;;;5.65;4.22;;;14.80;99.90;;;;;;5033438;28;20029;-76
2022/06/17 00:54:25;;;;;;;5.03;4.55;;;14.90;99.90;;;;;;5033267;28;20052;-76
2022/06/17 00:56:51;;;;;;;4.50;4.10;;;14.70;99.90;;;;;;5033416;28;20124;-76
2022/06/17 00:59:17;;;;;;;4.75;4.22;;;14.10;99.90;;;;;;5033193;28;20053;-76
2022/06/17 01:02:05;;;;;;;6.78;4.00;;;14.30;99.90;;;;;;5032814;28;20046;-76
2022/06/17 01:04:42;;;;;;;7.95;4.55;;;14.10;99.90;;;;;;5035521;28;20056;-76
2022/06/17 01:07:16;;;;;;;4.55;4.15;;;13.90;99.90;;;;;;5034363;28;20017;-76
2022/06/17 01:09:58;;;;;;;5.32;4.13;;;14.00;99.90;;;;;;5033055;28;20037;-76
2022/06/17 01:12:55;;;;;;;5.00;4.50;;;13.70;99.90;;;;;;5033716;28;20032;-76
2022/06/17 01:15:25;;;;;;;5.22;4.03;;;13.90;99.90;;;;;;5020602;28;20045;-76
2022/06/17 01:17:51;;;;;;;4.55;4.13;;;14.10;99.90;;;;;;5031693;28;20512;-76
2022/06/17 01:20:18;;;;;;;4.53;4.13;;;14.40;99.90;;;;;;5033060;28;20397;-76
2022/06/17 01:22:50;;;;;;;5.38;4.55;;;14.50;99.90;;;;;;5032860;28;20103;-76
2022/06/17 01:25:23;;;;;;;5.07;4.57;;;14.60;99.90;;;;;;5033846;28;20064;-77
2022/06/17 01:28:04;;;;;;;4.60;4.20;;;14.50;99.90;;;;;;5030141;28;20033;-77
2022/06/17 01:30:40;;;;;;;4.85;4.40;;;14.50;99.90;;;;;;5029231;28;20028;-77
2022/06/17 01:33:05;;;;;;;6.50;4.25;;;14.60;99.90;;;;;;5034193;28;20057;-77
2022/06/17 01:35:37;;;;;;;4.97;4.43;;;14.70;99.90;;;;;;5029621;28;20053;-77
2022/06/17 01:38:03;;;;;;;7.72;5.00;;;14.50;99.90;;;;;;5022042;28;20032;-77
2022/06/17 01:40:29;;;;;;;5.00;4.60;;;13.80;99.90;;;;;;5036622;28;20029;-76
2022/06/17 01:43:00;;;;;;;5.43;4.43;;;13.50;99.90;;;;;;5035197;28;20060;-76
2022/06/17 01:45:25;;;;;;;4.35;3.95;;;13.60;99.90;;;;;;5037872;28;20469;-76
2022/06/17 01:47:51;;;;;;;5.20;4.68;;;13.70;99.90;;;;;;5035471;28;20117;-76
2022/06/17 01:50:20;;;;;;;5.03;4.38;;;13.70;99.90;;;;;;5036463;28;20429;-77
2022/06/17 01:52:52;;;;;;;4.63;4.15;;;13.70;99.90;;;;;;5035273;28;20039;-77
2022/06/17 01:55:28;;;;;;;4.55;4.10;;;13.50;99.90;;;;;;5037581;28;20033;-77
2022/06/17 01:58:12;;;;;;;7.07;4.00;;;13.10;99.90;;;;;;5035725;28;20042;-77
2022/06/17 02:00:40;;;;;;;5.55;4.38;;;13.30;99.90;;;;;;5035459;28;20487;-77
2022/06/17 02:03:12;;;;;;;5.20;4.35;;;13.40;99.90;;;;;;5027858;28;20026;-77
2022/06/17 02:05:40;;;;;;;7.68;4.43;;;13.50;99.90;;;;;;5036260;28;20040;-77
2022/06/17 02:08:06;;;;;;;4.75;4.20;;;13.60;99.90;;;;;;5036025;28;20053;-77
2022/06/17 02:10:38;;;;;;;5.50;4.20;;;13.50;99.90;;;;;;5036159;28;20037;-77
2022/06/17 02:13:06;;;;;;;5.18;4.68;;;13.30;99.90;;;;;;5036389;28;20033;-77
2022/06/17 02:15:33;;;;;;;5.83;5.20;;;13.40;99.90;;;;;;5036061;28;20036;-77
2022/06/17 02:18:01;;;;;;;6.43;4.78;;;13.40;99.90;;;;;;5035632;28;20392;-77
2022/06/17 02:20:27;;;;;;;6.38;4.65;;;13.60;99.90;;;;;;5029140;28;20514;-77
2022/06/17 02:22:55;;;;;;;6.30;5.07;;;13.50;99.90;;;;;;5035057;28;20065;-77
2022/06/17 02:25:25;;;;;;;5.32;4.82;;;13.40;99.90;;;;;;5032128;28;20033;-77
2022/06/17 02:27:55;;;;;;;4.72;4.32;;;13.40;99.90;;;;;;5032384;28;20064;-77
2022/06/17 02:30:21;;;;;;;6.00;5.00;;;13.30;99.90;;;;;;5033006;28;20025;-77
2022/06/17 02:32:48;;;;;;;5.18;4.40;;;13.20;99.90;;;;;;5032408;28;20084;-77
2022/06/17 02:35:48;;;;;;;5.60;4.90;;;13.30;99.90;;;;;;5020332;28;20117;-77
2022/06/17 02:38:21;;;;;;;6.15;5.18;;;13.10;99.90;;;;;;5027225;28;20052;-77
2022/06/17 02:40:50;;;;;;;5.07;4.68;;;12.90;99.90;;;;;;5035633;28;20469;-77
2022/06/17 02:43:23;;;;;;;5.68;4.13;;;12.70;99.90;;;;;;5028152;28;20432;-77
2022/06/17 02:45:54;;;;;;;5.63;4.40;;;12.60;99.90;;;;;;5032087;28;20029;-77
2022/06/17 02:48:39;;;;;;;5.95;5.00;;;12.40;99.90;;;;;;5034910;28;20029;-77
2022/06/17 02:51:05;;;;;;;5.22;4.78;;;12.60;99.90;;;;;;5035020;28;20029;-77
2022/06/17 02:53:37;;;;;;;5.10;4.60;;;12.60;99.90;;;;;;5035530;28;20419;-77
2022/06/17 02:56:16;;;;;;;4.93;4.53;;;12.50;99.90;;;;;;5034083;28;20469;-77
2022/06/17 02:59:06;;;;;;;6.13;5.03;;;12.40;99.90;;;;;;5035329;28;20044;-76
2022/06/17 03:01:34;;;;;;;8.15;4.57;;;12.40;99.90;;;;;;5034016;28;20030;-77
2022/06/17 03:04:01;;;;;;;5.82;4.43;;;12.50;99.90;;;;;;5034621;28;20034;-77
2022/06/17 03:06:38;;;;;;;5.78;4.88;;;12.70;99.90;;;;;;5035528;28;20380;-77
2022/06/17 03:09:23;;;;;;;5.10;4.60;;;12.80;99.90;;;;;;5039531;28;20017;-76
2022/06/17 03:12:03;;;;;;;4.88;4.38;;;12.70;99.90;;;;;;5030251;28;20034;-77
2022/06/17 03:14:36;;;;;;;5.40;4.90;;;12.90;99.90;;;;;;5031399;28;20440;-76
2022/06/17 03:17:06;;;;;;;5.90;5.13;;;13.00;99.90;;;;;;5034590;28;20473;-76
2022/06/17 03:19:36;;;;;;;5.97;5.32;;;12.80;99.90;;;;;;5035230;28;20071;-77
2022/06/17 03:22:03;;;;;;;8.07;5.07;;;12.80;99.90;;;;;;5033261;28;20040;-76
2022/06/17 03:24:42;;;;;;;5.55;4.63;;;12.50;99.90;;;;;;5032566;28;20029;-76
2022/06/17 03:27:22;;;;;;;5.78;4.70;;;12.60;99.90;;;;;;5033463;28;20025;-76
2022/06/17 03:29:50;;;;;;;6.45;4.95;;;12.60;99.90;;;;;;5023260;28;20477;-77
2022/06/17 03:32:20;;;;;;;5.47;4.97;;;12.70;99.90;;;;;;5022822;28;20045;-77
2022/06/17 03:34:50;;;;;;;5.40;4.85;;;12.80;99.90;;;;;;5026264;28;20045;-76
2022/06/17 03:37:26;;;;;;;5.30;4.80;;;12.90;99.90;;;;;;5026874;28;20116;-77
2022/06/17 03:39:57;;;;;;;5.57;4.80;;;13.00;99.90;;;;;;5023862;28;20116;-77
2022/06/17 03:42:34;;;;;;;5.45;4.95;;;13.10;99.90;;;;;;5024070;28;20472;-77
2022/06/17 03:45:15;;;;;;;5.22;4.80;;;13.20;99.90;;;;;;5021583;28;20018;-77
2022/06/17 03:47:53;;;;;;;5.53;5.03;;;13.20;99.90;;;;;;5024755;28;20827;-77
2022/06/17 03:50:26;;;;;;;7.55;5.35;;;13.20;99.90;;;;;;5024595;28;20018;-77
2022/06/17 03:53:01;;;;;;;5.20;4.70;;;13.00;99.90;;;;;;5026115;28;20053;-77
2022/06/17 03:55:28;;;;;;;5.60;4.93;;;13.00;99.90;;;;;;5021760;28;20013;-78
2022/06/17 03:57:57;;;;;;;6.03;5.22;;;13.10;99.90;;;;;;5025987;28;20140;-77
2022/06/17 04:00:36;;;;;;;5.57;5.07;;;12.90;99.90;;;;;;5026464;28;20033;-77
2022/06/17 04:03:04;;;;;;;6.10;5.07;;;12.80;99.90;;;;;;5024798;28;20079;-77
2022/06/17 04:05:30;;;;;;;5.70;4.90;;;12.20;99.90;;;;;;5027195;28;20556;-77
2022/06/17 04:07:56;;;;;;;5.70;4.47;;;11.80;99.90;;;;;;5023974;28;20793;-76
2022/06/17 04:10:24;;;;;;;5.40;4.78;;;11.60;99.90;;;;;;5024371;28;20234;-77
2022/06/17 04:12:52;;;;;;;8.05;5.95;;;11.60;99.90;;;;;;5026418;28;20455;-77
2022/06/17 04:15:49;;;;;;;7.72;6.03;;;11.70;99.90;;;;;;5024420;28;20415;-77
2022/06/17 04:18:15;;;;;;;5.93;5.40;;;12.00;99.90;;;;;;5027551;28;20021;-76
2022/06/17 04:20:51;;;;;;;6.68;5.55;;;12.20;99.90;;;;;;5023455;28;20036;-77
2022/06/17 04:23:29;;;;;;;6.63;5.20;;;12.50;99.90;;;;;;5025631;28;20442;-78
2022/06/17 04:26:02;;;;;;;5.17;4.67;;;12.60;99.90;;;;;;5027788;28;20053;-77
2022/06/17 04:28:33;;;;;;;5.57;5.07;;;12.80;99.90;;;;;;5023188;28;20030;-77
2022/06/17 04:31:04;;;;;;;6.47;5.15;;;12.80;99.90;;;;;;5024071;28;20324;-76
2022/06/17 04:33:45;;;;;;;6.82;5.25;;;12.90;99.90;;;;;;5023761;28;20056;-77
2022/06/17 04:36:20;;;;;;;7.15;5.38;;;13.00;99.90;;;;;;5022960;28;20025;-77
2022/06/17 04:38:58;;;;;;;6.15;5.22;;;13.10;99.90;;;;;;5024953;28;20044;-77
2022/06/17 04:41:27;;;;;;;6.07;5.00;;;13.50;99.90;;;;;;5025546;28;20353;-77
2022/06/17 04:43:56;;;;;;;5.15;4.75;;;13.60;99.90;;;;;;5022964;28;20190;-77
2022/06/17 04:46:44;;;;;;;5.88;5.25;;;14.00;99.90;;;;;;5026513;28;20388;-77
2022/06/17 04:49:22;;;;;;;6.00;5.40;;;14.20;99.90;;;;;;5024256;28;20025;-77
2022/06/17 04:51:49;;;;;;;4.90;4.45;;;14.30;99.90;;;;;;5024324;28;20037;-77
2022/06/17 04:54:16;;;;;;;7.70;5.53;;;14.40;99.90;;;;;;5024046;28;20032;-77
2022/06/17 04:56:48;;;;;;;5.72;5.20;;;14.10;99.90;;;;;;5024042;28;20056;-77
2022/06/17 04:59:22;;;;;;;6.32;5.38;;;14.10;99.90;;;;;;5025452;28;20029;-77
2022/06/17 05:01:49;;;;;;;6.22;5.63;;;14.20;99.90;;;;;;5023756;28;20535;-77
2022/06/17 05:04:16;;;;;;;6.25;5.28;;;14.50;99.90;;;;;;5026897;28;20030;-77
2022/06/17 05:06:41;;;;;;;6.53;5.13;;;14.70;99.90;;;;;;5025470;28;20037;-76
2022/06/17 05:09:27;;;;;;;7.28;5.78;;;14.90;99.90;;;;;;5027127;28;20025;-77
2022/06/17 05:11:58;;;;;;;6.57;5.68;;;15.20;99.90;;;;;;5031304;28;20032;-77
2022/06/17 05:14:37;;;;;;;6.63;5.72;;;15.50;99.90;;;;;;5042551;28;20026;-76
2022/06/17 05:17:03;;;;;;;6.60;5.90;;;15.60;99.90;;;;;;5032693;28;20116;-77
2022/06/17 05:19:29;;;;;;;8.23;5.57;;;15.70;99.90;;;;;;5029161;28;20116;-77
2022/06/17 05:21:55;;;;;;;7.43;5.90;;;15.90;99.90;;;;;;5027746;28;20036;-77
2022/06/17 05:24:21;;;;;;;6.72;6.07;;;16.10;99.90;;;;;;5029238;28;20399;-77
2022/06/17 05:26:46;;;;;;;6.72;5.60;;;16.20;99.90;;;;;;5031951;28;20449;-78
2022/06/17 05:29:12;;;;;;;6.65;5.95;;;16.20;99.90;;;;;;5029167;28;20092;-77
2022/06/17 05:31:38;;;;;;;7.63;5.47;;;16.30;99.90;;;;;;5027729;28;20029;-78
2022/06/17 05:34:05;;;;;;;6.80;6.00;;;16.30;99.90;;;;;;5028532;28;20053;-78
2022/06/17 05:36:31;;;;;;;6.50;5.90;;;16.20;99.90;;;;;;5027683;28;20430;-78
2022/06/17 05:38:57;;;;;;;6.20;5.70;;;16.20;99.90;;;;;;5022280;28;20014;-78
2022/06/17 05:41:24;;;;;;;6.80;5.65;;;16.30;99.90;;;;;;5029087;28;20103;-77
2022/06/17 05:43:51;;;;;;;6.10;5.43;;;16.50;99.90;;;;;;5027814;28;20018;-77
2022/06/17 05:46:18;;;;;;;6.22;5.60;;;16.50;99.90;;;;;;5030786;28;20025;-78
2022/06/17 05:48:44;;;;;;;7.32;5.70;;;16.60;99.90;;;;;;5032726;28;20069;-77
2022/06/17 05:51:11;;;;;;;7.00;5.82;;;16.80;99.90;;;;;;5030438;28;20064;-77
2022/06/17 05:53:36;;;;;;;7.10;5.20;;;16.90;99.90;;;;;;5028079;28;20033;-77
2022/06/17 05:56:02;;;;;;;6.10;5.50;;;16.90;99.90;;;;;;5027821;28;20025;-77
2022/06/17 05:58:27;;;;;;;6.35;4.82;;;17.20;99.90;;;;;;5029069;28;20052;-77
2022/06/17 06:00:53;;;;;;;5.07;4.50;;;17.40;99.90;;;;;;5031722;28;20500;-77
2022/06/17 06:03:22;;;;;;;4.75;3.97;;;17.70;98.70;;;;;;5035293;28;20080;-77
2022/06/17 06:05:47;;;;;;;4.95;4.43;;;17.70;94.10;;;;;;5021384;28;20026;-77
2022/06/17 06:08:13;;;;;;;4.35;3.95;;;17.90;93.70;;;;;;5026669;28;20044;-77
2022/06/17 06:10:40;;;;;;;5.22;4.40;;;18.00;93.30;;;;;;5034394;28;20107;-77
2022/06/17 06:13:06;;;;;;;5.05;4.05;;;18.00;93.10;;;;;;5037803;28;20038;-78
2022/06/17 06:15:31;;;;;;;4.70;4.20;;;18.20;93.90;;;;;;5027870;28;20018;-78
2022/06/17 06:17:57;;;;;;;4.72;4.20;;;18.60;94.00;;;;;;5024023;28;20098;-78
2022/06/17 06:20:23;;;;;;;6.07;4.57;;;18.50;92.50;;;;;;5023594;28;20021;-78
2022/06/17 06:22:49;;;;;;;4.32;3.92;;;18.50;90.80;;;;;;5024828;28;20030;-78
2022/06/17 06:25:17;;;;;;;4.22;3.88;;;18.60;89.80;;;;;;5025285;28;20397;-78
2022/06/17 06:27:43;;;;;;;3.35;3.10;;;18.80;90.40;;;;;;5031092;28;20400;-78
2022/06/17 06:30:23;;;;;;;4.10;3.70;;;19.20;91.30;;;;;;5025835;28;20100;-78
2022/06/17 06:32:51;;;;;;;4.78;3.70;;;19.30;88.80;;;;;;5022674;28;20587;-78
2022/06/17 06:35:18;;;;;;;3.88;3.58;;;19.50;83.80;;;;;;5024635;28;20026;-78
2022/06/17 06:37:44;;;;;;;3.17;2.88;;;19.50;77.70;;;;;;5020512;28;20578;-78
2022/06/17 06:40:10;;;;;;;5.78;3.10;;;19.60;79.10;;;;;;5019013;28;20042;-78
2022/06/17 06:42:37;;;;;;;3.22;2.92;;;19.90;78.10;;;;;;5025296;28;20112;-78
2022/06/17 06:45:03;;;;;;;4.60;3.40;;;20.00;76.20;;;;;;5024594;28;20033;-78
2022/06/17 06:47:30;;;;;;;6.25;3.30;;;20.20;75.60;;;;;;5022671;28;20021;-78
2022/06/17 06:49:55;;;;;;;4.60;3.22;;;20.00;72.30;;;;;;5021833;28;20465;-77
2022/06/17 06:52:21;;;;;;;3.58;3.10;;;19.90;68.90;;;;;;5018421;28;20021;-78
2022/06/17 06:54:46;;;;;;;7.18;2.90;;;20.10;73.00;;;;;;5023868;28;20110;-78
2022/06/17 06:57:14;;;;;;;4.60;3.92;;;20.00;72.70;;;;;;5026021;28;20108;-78
2022/06/17 06:59:39;;;;;;;6.37;3.30;;;19.90;70.30;;;;;;5029339;28;20511;-78
2022/06/17 07:02:05;;;;;;;5.80;3.42;;;20.00;69.60;;;;;;5028071;28;20355;-78
2022/06/17 07:04:32;;;;;;;3.60;3.17;;;20.10;67.50;;;;;;5024145;28;20393;-78
2022/06/17 07:06:57;;;;;;;5.20;3.72;;;20.30;73.20;;;;;;5025586;28;20576;-77
2022/06/17 07:09:23;;;;;;;4.53;3.55;;;20.40;72.70;;;;;;5024422;28;20156;-77
2022/06/17 07:11:48;;;;;;;3.90;3.50;;;20.30;70.00;;;;;;5022181;28;20140;-77
2022/06/17 07:14:14;;;;;;;5.07;3.15;;;20.20;73.00;;;;;;5020716;28;20118;-78
2022/06/17 07:16:40;;;;;;;3.85;3.40;;;20.40;72.90;;;;;;5020326;28;20499;-78
2022/06/17 07:19:07;;;;;;;4.65;3.13;;;20.60;72.20;;;;;;5024857;28;20032;-77
2022/06/17 07:21:33;;;;;;;3.13;2.87;;;20.90;73.20;;;;;;5023106;28;20022;-78
2022/06/17 07:23:59;;;;;;;3.58;3.28;;;21.00;71.80;;;;;;5027439;28;20446;-78
2022/06/17 07:26:25;;;;;;;3.45;3.15;;;21.20;70.20;;;;;;5019835;28;20029;-78
2022/06/17 07:28:53;;;;;;;3.80;3.40;;;21.30;66.40;;;;;;5024841;28;20266;-78
2022/06/17 07:31:20;;;;;;;4.97;3.75;;;21.00;69.00;;;;;;5021157;28;20281;-78
2022/06/17 07:41:54;;;;;;;4.90;4.38;;;21.70;69.30;;;;;;4966353;28;20061;-37
2022/06/17 07:44:20;;;;;;;6.20;4.78;;;21.20;64.90;;;;;;4966039;28;20471;-36
2022/06/17 07:46:46;;;;;;;4.50;4.00;;;21.00;68.70;;;;;;4965015;28;20022;-36
2022/06/17 07:49:12;;;;;;;4.45;3.47;;;21.10;71.40;;;;;;4966505;28;20073;-37
2022/06/17 07:51:38;;;;;;;4.90;4.15;;;21.70;72.30;;;;;;4967167;28;20093;-37
2022/06/17 07:54:04;;;;;;;5.85;4.47;;;22.10;69.00;;;;;;4967103;28;20041;-35
2022/06/17 07:56:29;;;;;;;4.72;4.32;;;22.20;66.80;;;;;;4967603;28;21639;-38
2022/06/17 07:58:55;;;;;;;4.95;3.60;;;22.30;68.40;;;;;;4966243;28;20554;-37
2022/06/17 08:01:21;;;;;;;5.20;3.78;;;22.80;63.50;;;;;;4963368;28;20134;-36
2022/06/17 08:03:46;;;;;;;4.32;3.92;;;23.00;62.50;;;;;;4968035;28;20387;-38
2022/06/17 08:06:14;;;;;;;4.57;3.83;;;22.60;58.20;;;;;;4967801;28;20476;-38
2022/06/17 08:08:40;;;;;;;4.20;3.73;;;22.80;62.70;;;;;;4963757;28;20046;-38
2022/06/17 08:11:06;;;;;;;6.03;3.90;;;23.00;55.50;;;;;;4967338;28;20538;-37
2022/06/17 08:13:32;;;;;;;4.20;3.80;;;23.20;62.80;;;;;;4967036;28;20036;-37
2022/06/17 08:16:01;;;;;;;4.47;3.90;;;23.20;60.50;;;;;;4966478;28;20023;-36
2022/06/17 08:18:28;;;;;;;4.30;3.90;;;22.90;61.90;;;;;;4966344;28;20756;-38
2022/06/17 08:20:54;;;;;;;5.32;3.55;;;22.60;62.50;;;;;;4963727;28;20085;-37
2022/06/17 08:23:21;;;;;;;4.00;3.70;;;22.70;62.60;;;;;;4965039;28;20065;-36
2022/06/17 08:25:47;;;;;;;4.80;4.05;;;23.00;65.10;;;;;;4967631;28;20022;-39
2022/06/17 08:28:15;;;;;;;4.40;4.00;;;23.00;60.30;;;;;;4967097;28;20022;-38
2022/06/17 08:30:53;;;;;;;5.60;4.20;;;22.90;61.00;;;;;;4968176;28;20047;-37
2022/06/17 08:33:27;;;;;;;4.28;3.88;;;23.00;60.40;;;;;;4961945;28;20027;-37
2022/06/17 08:35:54;;;;;;;5.90;4.10;;;23.10;63.80;;;;;;4958789;28;20102;-37
2022/06/17 08:38:23;;;;;;;3.95;3.55;;;23.30;59.90;;;;;;4961249;28;20134;-38
2022/06/17 08:40:59;;;;;;;4.15;3.70;;;23.30;58.30;;;;;;4960711;28;20039;-38
2022/06/17 08:43:28;;;;;;;5.18;3.50;;;23.60;58.10;;;;;;4961591;28;20110;-35
2022/06/17 08:46:18;;;;;;;6.03;3.90;;;23.70;58.40;;;;;;4966596;28;20105;-38
2022/06/17 08:49:04;;;;;;;5.78;3.90;;;23.60;61.90;;;;;;4957960;28;20066;-39
2022/06/17 08:51:51;;;;;;;4.95;3.40;;;23.60;58.10;;;;;;4964111;28;20488;-39
2022/06/17 08:54:34;;;;;;;6.38;3.58;;;23.60;56.90;;;;;;4965403;28;20027;-39
2022/06/17 08:57:07;;;;;;;3.42;3.13;;;23.70;60.40;;;;;;4959040;28;20062;-38
2022/06/17 08:59:44;;;;;;;4.25;3.22;;;23.70;59.30;;;;;;4965716;28;20395;-39
2022/06/17 09:02:21;;;;;;;3.93;3.27;;;23.70;56.80;;;;;;4962406;28;20058;-39
2022/06/17 09:05:33;;;;;;;4.65;3.78;;;23.70;56.60;;;;;;4964916;28;20046;-38
2022/06/17 09:08:23;;;;;;;4.25;2.65;;;23.70;55.20;;;;;;4953229;28;20545;-37
2022/06/17 09:11:01;;;;;;;3.50;3.13;;;24.00;53.60;;;;;;4960719;28;20023;-38
2022/06/17 09:13:29;;;;;;;6.68;3.40;;;24.30;53.00;;;;;;4964215;28;20519;-38
2022/06/17 09:16:06;;;;;;;3.55;2.75;;;24.40;52.80;;;;;;4960845;28;20400;-37
2022/06/17 09:18:38;;;;;;;;;;;24.20;54.70;;;;;;4961568;28;20026;-37
2022/06/17 09:21:14;;;;;;;3.90;3.05;;;24.20;51.40;;;;;;4962362;28;19937;-38
2022/06/17 09:23:41;;;;;;;3.45;3.15;;;24.10;50.10;;;;;;4965125;28;20038;-38
2022/06/17 09:26:33;;;;;;;3.92;3.00;;;24.10;52.10;;;;;;4966468;28;20105;-37
2022/06/17 09:29:23;;;;;;;3.50;3.20;;;24.10;52.50;;;;;;4957676;28;20035;-38
2022/06/17 09:31:55;;;;;;;6.18;3.28;;;24.00;52.80;;;;;;4964308;28;20134;-35
2022/06/17 09:34:34;;;;;;;3.30;2.60;;;23.90;56.80;;;;;;4956526;28;20029;-36
2022/06/17 09:37:04;;;;;;;2.80;2.60;;;23.90;50.20;;;;;;4977515;28;20058;-38
2022/06/17 09:39:44;;;;;;;2.80;2.15;;;24.00;51.00;;;;;;4966555;28;20034;-38
2022/06/17 09:42:21;;;;;;;3.50;2.50;;;24.00;47.00;;;;;;4964549;28;20057;-37
2022/06/17 09:44:53;;;;;;;4.15;2.33;;;24.20;50.10;;;;;;4962424;28;20031;-38
2022/06/17 09:47:34;;;;;;;1.90;1.80;;;24.30;48.00;;;;;;4976130;28;20046;-37
2022/06/17 09:50:12;;;;;;;1.60;1.50;;;24.90;42.10;;;;;;4964656;28;20510;-38
2022/06/17 09:52:46;;;;;;;1.88;1.77;;;24.90;43.60;;;;;;4962174;28;20038;-39
2022/06/17 09:55:35;;;;;;;4.57;1.67;;;24.90;41.90;;;;;;4949744;28;20037;-38
2022/06/17 09:58:08;;;;;;;2.00;1.60;;;25.10;38.00;;;;;;4967404;28;20034;-36
2022/06/17 10:00:45;;;;;;;2.72;1.92;;;24.80;39.00;;;;;;4967506;28;20069;-36
2022/06/17 10:03:23;;;;;;;1.90;1.80;;;25.10;39.50;;;;;;4967200;28;20031;-38
2022/06/17 10:05:58;;;;;;;1.80;1.70;;;25.20;38.60;;;;;;4964354;28;20118;-39
2022/06/17 10:09:02;;;;;;;3.92;1.60;;;25.10;38.60;;;;;;4967795;28;20034;-38
2022/06/17 10:11:45;;;;;;;2.38;1.50;;;25.10;40.30;;;;;;4968826;28;20470;-36
2022/06/17 10:14:25;;;;;;;1.85;1.50;;;25.10;38.70;;;;;;4966061;28;20030;-37
2022/06/17 10:19:50;;;;;;;2.63;1.85;;;24.90;40.30;;;;;;4964314;28;20070;-37
2022/06/17 10:22:19;;;;;;;2.00;1.90;;;24.80;39.80;;;;;;4968652;28;20085;-39
2022/06/17 10:25:19;;;;;;;2.67;1.63;;;24.80;40.30;;;;;;4967516;28;20031;-39
2022/06/17 10:28:06;;;;;;;1.80;1.70;;;24.90;40.50;;;;;;4963871;28;20035;-36
2022/06/17 10:30:42;;;;;;;1.98;1.88;;;25.00;39.40;;;;;;4965300;28;20071;-39
2022/06/17 10:33:13;;;;;;;2.05;1.85;;;25.10;38.00;;;;;;4967078;28;20034;-39
2022/06/17 10:35:41;;;;;;;2.30;1.88;;;25.10;37.60;;;;;;4967692;28;20035;-39
2022/06/17 10:38:10;;;;;;;1.48;1.38;;;25.30;38.50;;;;;;4969226;28;20035;-38
2022/06/17 10:40:38;;;;;;;1.98;1.67;;;25.40;36.30;;;;;;4982156;28;20035;-36
2022/06/17 10:43:06;;;;;;;;;;;25.20;38.50;;;;;;4969665;28;20086;-36
2022/06/17 10:45:34;;;;;;;2.65;1.80;;;25.30;39.50;;;;;;4967783;28;19965;-38
2022/06/17 10:48:20;;;;;;;2.22;1.77;;;25.30;38.60;;;;;;4967945;28;20022;-39
2022/06/17 10:50:46;;;;;;;2.43;2.03;;;25.10;34.80;;;;;;4966383;28;20443;-38
2022/06/17 10:53:39;;;;;;;2.72;1.40;;;25.10;41.00;;;;;;4969062;28;20030;-39
2022/06/17 10:56:10;;;;;;;2.10;1.90;;;25.30;42.10;;;;;;4968052;28;20555;-35
2022/06/17 10:58:37;;;;;;;1.60;1.50;;;25.20;38.70;;;;;;4968980;28;20026;-39
2022/06/17 11:01:07;;;;;;;2.83;1.38;;;25.40;39.40;;;;;;4965930;28;20404;-37
2022/06/17 11:03:35;;;;;;;1.52;1.30;;;24.90;36.10;;;;;;4967313;28;20395;-36
2022/06/17 11:06:04;;;;;;;1.95;1.40;;;25.00;37.00;;;;;;4966505;28;20159;-36
2022/06/17 11:08:57;;;;;;;3.63;1.40;;;25.10;38.30;;;;;;4968713;28;20027;-37
2022/06/17 11:14:44;;;;;;;1.88;1.50;;;25.20;37.10;;;;;;4969072;28;20037;-37
2022/06/17 11:17:18;;;;;;;1.58;1.42;;;25.10;37.80;;;;;;4965454;28;20034;-37
2022/06/17 11:19:47;;;;;;;3.17;1.63;;;25.10;35.10;;;;;;4967083;28;20073;-36
2022/06/17 11:22:37;;;;;;;2.08;1.70;;;25.10;37.60;;;;;;4966604;28;20093;-39
2022/06/17 11:25:25;;;;;;;1.40;1.30;;;25.00;39.30;;;;;;4962837;28;20047;-39
2022/06/17 11:27:58;;;;;;;2.92;1.85;;;25.00;36.50;;;;;;4965622;28;20027;-39
2022/06/17 11:30:31;;;;;;;1.60;1.50;;;25.10;34.80;;;;;;4966413;28;20031;-39
2022/06/17 11:33:00;;;;;;;1.25;1.15;;;24.90;34.80;;;;;;4967728;28;20110;-38
2022/06/17 11:35:36;;;;;;;3.45;1.45;;;24.70;36.20;;;;;;4968586;28;20118;-36
2022/06/17 11:38:09;;;;;;;1.50;1.35;;;24.40;34.00;;;;;;4968909;28;20023;-38
2022/06/17 11:40:45;;;;;;;1.48;1.30;;;24.30;36.50;;;;;;4964860;28;20085;-35
2022/06/17 11:43:24;;;;;;;2.15;1.52;;;24.60;36.40;;;;;;4967098;28;20031;-37
2022/06/17 11:45:50;;;;;;;1.60;1.50;;;24.70;34.20;;;;;;4966917;28;20179;-39
2022/06/17 11:48:20;;;;;;;1.75;1.33;;;24.80;34.70;;;;;;4967305;28;20105;-39
2022/06/17 11:51:14;;;;;;;1.77;1.63;;;24.90;36.30;;;;;;4962680;28;20571;-38
2022/06/17 11:53:54;;;;;;;1.98;1.70;;;24.70;37.20;;;;;;4970422;28;20034;-38
2022/06/17 11:56:46;;;;;;;2.45;1.60;;;24.80;37.70;;;;;;4967412;28;20074;-39
2022/06/17 11:59:20;;;;;;;1.15;1.15;;;25.00;38.10;;;;;;4962010;28;20081;-36
2022/06/17 12:02:01;;;;;;;1.50;1.40;;;25.40;36.70;;;;;;4965515;28;20511;-37
2022/06/17 12:04:55;;;;;;;4.30;1.42;;;25.40;37.40;;;;;;4963756;28;20074;-37
2022/06/17 12:07:35;;;;;;;2.15;1.55;;;25.40;37.50;;;;;;4965270;28;20027;-39
2022/06/17 12:10:23;;;;;;;1.25;1.23;;;25.40;35.80;;;;;;4965479;28;20506;-38
2022/06/17 12:12:52;;;;;;;2.53;1.40;;;25.30;35.30;;;;;;4967268;28;20034;-38
2022/06/17 12:15:42;;;;;;;1.60;1.42;;;25.40;38.30;;;;;;4967305;28;20038;-39
2022/06/17 12:18:24;;;;;;;1.77;1.67;;;25.60;37.40;;;;;;4965233;28;20434;-38
2022/06/17 12:20:49;;;;;;;1.73;1.48;;;25.60;36.80;;;;;;4984154;28;20037;-37
2022/06/17 12:23:30;;;;;;;1.60;1.30;;;25.50;36.60;;;;;;4968309;28;20034;-38
2022/06/17 12:26:03;;;;;;;4.47;1.75;;;25.50;35.20;;;;;;4964734;28;20660;-36
2022/06/17 12:28:52;;;;;;;1.55;1.42;;;25.60;38.50;;;;;;4965974;28;20105;-36
2022/06/17 12:31:37;;;;;;;6.30;2.65;;;25.20;38.90;;;;;;4962846;28;20035;-38
2022/06/17 12:34:32;;;;;;;1.73;1.63;;;25.10;38.70;;;;;;4965829;28;20027;-36
2022/06/17 12:37:09;;;;;;;1.52;1.48;;;25.10;37.60;;;;;;4965265;28;20538;-39
2022/06/17 12:39:42;;;;;;;1.50;1.40;;;25.10;36.40;;;;;;4965937;28;20070;-39
2022/06/17 12:42:23;;;;;;;10.65;4.22;;;25.30;39.20;;;;;;4963689;28;20432;-35
2022/06/17 12:45:18;;;;;;;2.67;1.40;;;25.40;37.00;;;;;;4964230;28;20022;-36
2022/06/17 12:48:05;;;;;;;7.28;3.13;;;25.20;35.20;;;;;;4965074;28;20106;-39
2022/06/17 12:53:42;;;;;;;7.45;2.38;;;25.20;36.10;;;;;;4963011;28;20114;-35
2022/06/17 12:56:17;;;;;;;2.28;1.50;;;25.20;34.60;;;;;;4963398;28;20051;-36
2022/06/17 12:58:51;;;;;;;2.78;1.30;;;25.20;36.90;;;;;;4961629;28;22186;-38
2022/06/17 13:01:39;;;;;;;1.52;1.42;;;25.40;33.90;;;;;;4965999;28;20049;-39
2022/06/17 13:04:32;;;;;;;0.95;0.95;;;25.50;34.10;;;;;;4965690;28;20023;-37
2022/06/17 13:07:22;;;;;;;1.23;1.23;;;25.70;32.30;;;;;;4964111;28;20058;-36
2022/06/17 13:13:29;;;;;;;1.65;1.45;;;25.60;33.20;;;;;;4964350;28;20527;-36
2022/06/17 13:15:58;;;;;;;1.27;1.17;;;25.40;30.10;;;;;;4964947;28;20117;-39
2022/06/17 13:18:50;;;;;;;1.25;1.13;;;25.50;33.00;;;;;;4966955;28;20081;-39
2022/06/17 13:21:33;;;;;;;3.33;1.48;;;25.70;36.50;;;;;;4963928;28;20078;-39
2022/06/17 13:24:10;;;;;;;3.63;1.58;;;25.80;36.90;;;;;;4963452;28;20035;-39
2022/06/17 13:26:43;;;;;;;;;;;25.80;35.20;;;;;;4963034;28;20035;-39
2022/06/17 13:29:39;;;;;;;1.40;1.30;;;25.80;35.10;;;;;;4966245;28;19922;-38
2022/06/17 13:32:16;;;;;;;1.90;1.40;;;25.70;35.40;;;;;;4964596;28;20049;-36
2022/06/17 13:34:47;;;;;;;1.75;1.17;;;25.70;34.20;;;;;;4967528;28;20031;-37
2022/06/17 13:37:28;;;;;;;1.45;1.30;;;25.50;32.30;;;;;;4967436;28;20397;-36
2022/06/17 13:40:22;;;;;;;1.60;1.40;;;25.70;33.10;;;;;;4968441;28;20031;-37